createdAt,value
2018-12-19T00:03:38.737Z,3.42
2018-12-19T00:08:45.071Z,3.40
2018-12-19T00:13:49.382Z,3.33
2018-12-19T00:19:02.281Z,3.33
2018-12-19T00:24:18.393Z,3.32
2018-12-19T00:29:31.371Z,3.30
2018-12-19T00:34:49.577Z,3.29
2018-12-19T00:51:20.301Z,3.27
2018-12-19T00:56:27.885Z,3.28
2018-12-19T01:01:35.437Z,3.22
2018-12-19T01:06:40.854Z,3.22
2018-12-19T01:11:45.528Z,3.25
2018-12-19T01:16:51.569Z,3.17
2018-12-19T01:22:09.434Z,3.18
2018-12-19T01:27:16.675Z,3.14
2018-12-19T01:32:21.258Z,3.13
2018-12-19T01:37:25.889Z,3.09
2018-12-19T01:42:33.011Z,3.13
2018-12-19T01:47:41.335Z,3.13
2018-12-19T01:52:45.631Z,3.09
2018-12-19T01:57:50.097Z,3.09
2018-12-19T02:02:55.339Z,3.04
2018-12-19T02:08:01.601Z,3.09
2018-12-19T02:13:06.847Z,3.07
2018-12-19T02:18:12.371Z,3.06
2018-12-19T02:23:17.710Z,2.97
2018-12-19T02:28:25.673Z,2.93
2018-12-19T02:33:31.034Z,2.93
2018-12-19T02:38:37.530Z,2.86
2018-12-19T02:43:44.762Z,2.84
2018-12-19T02:48:50.376Z,2.79
2018-12-19T02:53:56.919Z,2.77
2018-12-19T02:59:02.209Z,2.76
2018-12-19T03:04:10.687Z,2.83
2018-12-19T03:09:17.225Z,2.77
2018-12-19T03:14:21.666Z,2.75
2018-12-19T03:19:26.412Z,2.77
2018-12-19T03:24:31.035Z,2.73
2018-12-19T03:29:36.438Z,2.75
2018-12-19T03:34:40.849Z,2.72
2018-12-19T03:39:50.226Z,2.71
2018-12-19T03:44:51.962Z,2.72
2018-12-19T03:49:56.903Z,2.71
2018-12-19T03:55:01.515Z,2.68
2018-12-19T04:00:06.902Z,2.74
2018-12-19T04:05:12.439Z,2.76
2018-12-19T04:10:17.510Z,2.67
2018-12-19T04:15:21.696Z,2.67
2018-12-19T04:20:27.060Z,2.68
2018-12-19T04:25:31.908Z,2.67
2018-12-19T04:30:41.761Z,2.67
2018-12-19T04:35:46.280Z,2.72
2018-12-19T04:40:50.545Z,2.71
2018-12-19T04:45:54.936Z,2.73
2018-12-19T04:51:05.304Z,2.74
2018-12-19T04:56:09.573Z,2.72
2018-12-19T05:01:13.803Z,2.74
2018-12-19T05:06:18.151Z,2.74
2018-12-19T05:11:22.601Z,2.75
2018-12-19T05:16:27.343Z,2.75
2018-12-19T05:21:41.406Z,2.73
2018-12-19T05:26:45.747Z,2.75
2018-12-19T05:31:50.171Z,2.79
2018-12-19T05:36:55.899Z,2.78
2018-12-19T05:42:01.835Z,2.76
2018-12-19T05:47:06.503Z,2.76
2018-12-19T05:52:10.874Z,2.77
2018-12-19T05:57:15.753Z,2.77
2018-12-19T06:02:30.793Z,2.78
2018-12-19T06:07:35.769Z,2.74
2018-12-19T06:12:40.201Z,2.74
2018-12-19T06:17:46.489Z,2.74
2018-12-19T06:22:51.624Z,2.79
2018-12-19T06:27:56.127Z,2.83
2018-12-19T06:33:12.750Z,2.85
2018-12-19T06:38:20.433Z,2.84
2018-12-19T06:43:24.748Z,2.88
2018-12-19T06:48:29.208Z,2.87
2018-12-19T06:53:33.734Z,2.88
2018-12-19T06:58:38.264Z,2.90
2018-12-19T07:03:42.805Z,2.91
2018-12-19T07:08:47.097Z,2.93
2018-12-19T07:13:52.098Z,2.96
2018-12-19T07:18:56.472Z,2.98
2018-12-19T07:24:05.981Z,3.06
2018-12-19T07:29:10.562Z,2.96
2018-12-19T07:34:15.102Z,2.92
2018-12-19T07:39:19.602Z,2.97
2018-12-19T07:44:24.436Z,3.04
2018-12-19T07:49:29.806Z,3.18
2018-12-19T07:54:34.739Z,3.24
2018-12-19T07:59:54.457Z,3.38
2018-12-19T08:04:59.196Z,3.40
2018-12-19T08:10:04.615Z,3.42
2018-12-19T08:15:09.738Z,3.42
2018-12-19T08:20:14.454Z,3.49
2018-12-19T08:25:19.124Z,3.43
2018-12-19T08:30:28.966Z,3.52
2018-12-19T08:35:33.798Z,3.56
2018-12-19T08:40:38.361Z,3.61
2018-12-19T08:45:43.102Z,3.67
2018-12-19T08:50:47.442Z,3.75
2018-12-19T08:55:56.054Z,3.77
2018-12-19T09:01:00.549Z,3.84
2018-12-19T09:06:05.225Z,3.93
2018-12-19T09:11:09.844Z,3.89
2018-12-19T09:16:14.607Z,3.90
2018-12-19T09:21:19.087Z,3.99
2018-12-19T09:26:23.594Z,4.01
2018-12-19T09:31:28.436Z,4.04
2018-12-19T09:36:32.932Z,3.98
2018-12-19T09:41:38.016Z,4.00
2018-12-19T09:46:45.127Z,4.00
2018-12-19T09:51:50.024Z,4.02
2018-12-19T09:56:55.812Z,4.08
2018-12-19T10:07:14.981Z,4.13
2018-12-19T10:12:19.712Z,4.22
2018-12-19T10:17:24.991Z,4.22
2018-12-19T10:22:32.528Z,4.21
2018-12-19T10:27:37.658Z,4.24
2018-12-19T10:32:42.258Z,4.34
2018-12-19T10:37:46.681Z,4.34
2018-12-19T10:42:51.761Z,4.31
2018-12-19T10:47:56.336Z,4.38
2018-12-19T10:53:00.872Z,4.54
2018-12-19T10:58:05.507Z,4.62
2018-12-19T11:03:10.292Z,4.63
2018-12-19T11:08:15.332Z,4.71
2018-12-19T11:13:20.488Z,4.75
2018-12-19T11:23:45.250Z,4.92
2018-12-19T11:28:51.539Z,5.04
2018-12-19T11:34:05.565Z,5.18
2018-12-19T11:39:10.160Z,5.27
2018-12-19T11:44:15.048Z,5.24
2018-12-19T11:49:19.692Z,5.16
2018-12-19T11:54:24.441Z,5.19
2018-12-19T11:59:28.994Z,5.22
2018-12-19T12:04:33.394Z,5.26
2018-12-19T12:09:39.788Z,5.31
2018-12-19T12:14:44.937Z,5.29
2018-12-19T12:19:50.576Z,5.38
2018-12-19T12:24:55.638Z,5.39
2018-12-19T12:30:00.369Z,5.39
2018-12-19T12:35:08.617Z,5.36
2018-12-19T12:40:13.999Z,5.30
2018-12-19T12:45:18.909Z,5.16
2018-12-19T12:50:23.349Z,5.10
2018-12-19T12:55:29.333Z,5.08
2018-12-19T13:00:42.982Z,5.07
2018-12-19T13:05:48.267Z,5.05
2018-12-19T13:10:52.904Z,4.98
2018-12-19T13:15:58.094Z,4.92
2018-12-19T13:21:02.998Z,4.88
2018-12-19T13:26:08.367Z,4.85
2018-12-19T13:31:18.530Z,4.79
2018-12-19T13:36:23.869Z,4.80
2018-12-19T13:41:28.944Z,4.79
2018-12-19T13:46:34.022Z,4.79
2018-12-19T13:51:38.329Z,4.72
2018-12-19T13:56:44.892Z,4.73
2018-12-19T14:01:49.469Z,4.68
2018-12-19T14:06:53.903Z,4.65
2018-12-19T14:11:58.728Z,4.69
2018-12-19T14:17:03.460Z,4.64
2018-12-19T14:22:07.952Z,4.60
2018-12-19T14:27:12.358Z,4.59
2018-12-19T14:32:16.696Z,4.61
2018-12-19T14:37:21.381Z,4.60
2018-12-19T14:42:25.880Z,4.60
2018-12-19T14:47:30.253Z,4.58
2018-12-19T14:52:34.807Z,4.53
2018-12-19T14:57:39.856Z,4.56
2018-12-19T15:02:44.402Z,4.51
2018-12-19T15:07:48.620Z,4.54
2018-12-19T15:12:53.200Z,4.51
2018-12-19T15:17:57.664Z,4.53
2018-12-19T15:23:02.168Z,4.56
2018-12-19T15:28:06.770Z,4.51
2018-12-19T15:33:11.246Z,4.53
2018-12-19T15:38:15.752Z,4.47
2018-12-19T15:43:20.232Z,4.56
2018-12-19T15:48:24.976Z,4.47
2018-12-19T15:53:29.286Z,4.50
2018-12-19T15:58:33.646Z,4.48
2018-12-19T16:03:47.716Z,4.55
2018-12-19T16:08:52.027Z,4.55
2018-12-19T16:13:56.414Z,4.56
2018-12-19T16:19:01.053Z,4.52
2018-12-19T16:24:05.673Z,4.53
2018-12-19T16:29:10.063Z,4.57
2018-12-19T16:34:14.682Z,4.52
2018-12-19T16:39:19.223Z,4.54
2018-12-19T16:44:23.584Z,4.57
2018-12-19T16:49:27.890Z,4.61
2018-12-19T16:54:37.289Z,4.59
2018-12-19T16:59:41.668Z,4.59
2018-12-19T17:04:46.136Z,4.60
2018-12-19T17:09:50.795Z,4.61
2018-12-19T17:14:55.146Z,4.53
2018-12-19T17:19:59.558Z,4.52
2018-12-19T17:25:03.800Z,4.53
2018-12-19T17:30:09.431Z,4.52
2018-12-19T17:35:14.419Z,4.60
2018-12-19T17:40:18.969Z,4.64
2018-12-19T17:45:24.658Z,4.58
2018-12-19T17:50:29.302Z,4.63
2018-12-19T17:55:35.049Z,4.61
2018-12-19T18:00:40.256Z,4.60
2018-12-19T18:05:45.286Z,4.59
2018-12-19T18:10:52.058Z,4.60
2018-12-19T18:15:56.592Z,4.68
2018-12-19T18:21:01.296Z,4.75
2018-12-19T18:26:06.414Z,4.71
2018-12-19T18:31:11.315Z,4.74
2018-12-19T18:36:16.377Z,4.72
2018-12-19T18:41:26.479Z,4.75
2018-12-19T18:46:32.511Z,4.80
2018-12-19T18:51:39.060Z,4.76
2018-12-19T18:56:44.045Z,4.73
2018-12-19T19:01:49.645Z,4.75
2018-12-19T19:06:54.571Z,4.76
2018-12-19T19:12:00.484Z,4.77
2018-12-19T19:17:05.898Z,4.81
2018-12-19T19:22:18.662Z,4.84
2018-12-19T19:27:23.964Z,4.86
2018-12-19T19:32:42.303Z,4.83
2018-12-19T19:37:47.129Z,4.84
2018-12-19T19:42:51.693Z,4.83
2018-12-19T19:47:55.946Z,4.84
2018-12-19T19:53:00.911Z,4.87
2018-12-19T19:58:09.696Z,4.91
2018-12-19T20:03:19.774Z,4.91
2018-12-19T20:08:24.610Z,4.91
2018-12-19T20:13:33.240Z,5.00
2018-12-19T20:18:35.480Z,4.96
2018-12-19T20:23:40.212Z,4.97
2018-12-19T20:28:44.562Z,5.00
2018-12-19T20:33:53.890Z,5.03
2018-12-19T20:38:58.943Z,5.04
2018-12-19T20:44:03.481Z,5.07
2018-12-19T20:49:08.542Z,5.03
2018-12-19T20:54:13.145Z,4.99
2018-12-19T20:59:20.025Z,5.03
2018-12-19T21:04:26.428Z,5.07
2018-12-19T21:09:31.090Z,5.08
2018-12-19T21:14:35.687Z,5.08
2018-12-19T21:19:40.291Z,5.05
2018-12-19T21:24:44.736Z,5.10
2018-12-19T21:29:49.231Z,5.04
2018-12-19T21:34:54.486Z,5.02
2018-12-19T21:39:58.973Z,4.91
2018-12-19T21:45:03.565Z,4.93
2018-12-19T21:50:09.995Z,4.90
2018-12-19T21:55:15.031Z,4.86
2018-12-19T22:00:24.166Z,4.84
2018-12-19T22:05:29.349Z,4.79
2018-12-19T22:10:34.067Z,4.74
2018-12-19T22:15:38.409Z,4.74
2018-12-19T22:20:45.296Z,4.70
2018-12-19T22:25:52.471Z,4.72
2018-12-19T22:30:56.967Z,4.72
2018-12-19T22:36:01.215Z,4.66
2018-12-19T22:41:05.679Z,4.68
2018-12-19T22:46:10.333Z,4.64
2018-12-19T22:51:15.350Z,4.63
2018-12-19T22:56:20.846Z,4.67
2018-12-19T23:01:37.070Z,4.74
2018-12-19T23:06:41.209Z,4.72
2018-12-19T23:11:46.802Z,4.71
2018-12-19T23:16:51.677Z,4.66
2018-12-19T23:22:01.641Z,4.64
2018-12-19T23:27:12.247Z,4.69
2018-12-19T23:32:22.844Z,4.76
2018-12-19T23:37:27.742Z,4.69
2018-12-19T23:42:33.163Z,4.70
2018-12-19T23:47:37.624Z,4.67
2018-12-19T23:52:47.744Z,4.69
2018-12-19T23:57:52.093Z,4.69
